Time;durP1;ratioP1;P1;durP2;ratioP2;P2;SDS_P1;SDS_P2;PMS_P1;PMS_P2;Temp;Humidity;BMP_temperature;BMP_pressure;BME280_temperature;BME280_humidity;BME280_pressure;Samples;Min_cycle;Max_cycle;Signal;HPM_P1;HPM_P2
2023/04/13 00:00:40;;;;;;;17.23;15.00;;;;;;;;;;10077875;28;20527;-72
2023/04/13 00:05:33;;;;;;;19.75;15.77;;;;;;;;;;10056934;28;20049;-72
2023/04/13 00:10:27;;;;;;;21.83;15.90;;;;;;;;;;10077437;28;20073;-72
2023/04/13 00:15:20;;;;;;;24.10;17.15;;;;;;;;;;10081494;28;20385;-72
2023/04/13 00:20:14;;;;;;;16.88;14.60;;;;;;;;;;10080083;28;20048;-72
2023/04/13 00:25:07;;;;;;;20.55;15.13;;;;;;;;;;10074800;28;20045;-72
2023/04/13 00:30:01;;;;;;;17.95;15.82;;;;;;;;;;10082722;28;20051;-72
2023/04/13 00:34:54;;;;;;;21.13;15.85;;;;;;;;;;10100417;28;20114;-72
2023/04/13 00:39:48;;;;;;;18.70;16.23;;;;;;;;;;10077560;28;20075;-72
2023/04/13 00:44:41;;;;;;;22.85;15.80;;;;;;;;;;10070492;28;21213;-72
2023/04/13 00:49:34;;;;;;;21.83;17.65;;;;;;;;;;10093645;28;20463;-72
2023/04/13 00:54:28;;;;;;;23.98;17.13;;;;;;;;;;10082861;28;20547;-72
2023/04/13 00:59:24;;;;;;;19.50;17.35;;;;;;;;;;10095718;28;20068;-72
2023/04/13 01:04:17;;;;;;;22.38;16.65;;;;;;;;;;10100444;28;20059;-72
2023/04/13 01:09:15;;;;;;;22.80;17.10;;;;;;;;;;10095249;28;20417;-71
2023/04/13 01:14:12;;;;;;;19.17;17.08;;;;;;;;;;10076344;28;20443;-71
2023/04/13 01:19:05;;;;;;;19.85;17.20;;;;;;;;;;10058288;28;20045;-71
2023/04/13 01:24:28;;;;;;;21.58;17.38;;;;;;;;;;10055111;28;20547;-71
2023/04/13 01:29:25;;;;;;;19.23;16.05;;;;;;;;;;10084162;28;20483;-71
2023/04/13 01:34:17;;;;;;;22.67;17.15;;;;;;;;;;10058137;28;20045;-71
2023/04/13 01:39:20;;;;;;;22.23;16.40;;;;;;;;;;10061146;28;20067;-71
2023/04/13 01:44:23;;;;;;;24.52;17.38;;;;;;;;;;10062650;28;20064;-71
2023/04/13 01:49:19;;;;;;;23.30;18.08;;;;;;;;;;10122372;28;20581;-71
2023/04/13 01:54:32;;;;;;;19.98;16.55;;;;;;;;;;10090834;28;20048;-71
2023/04/13 01:59:25;;;;;;;20.98;16.90;;;;;;;;;;10091236;28;20052;-71
2023/04/13 02:04:21;;;;;;;23.10;17.42;;;;;;;;;;10094298;28;20072;-71
2023/04/13 02:09:15;;;;;;;22.05;17.77;;;;;;;;;;10124533;28;20066;-71
2023/04/13 02:14:09;;;;;;;24.00;17.90;;;;;;;;;;10117247;28;20047;-71
2023/04/13 02:19:02;;;;;;;24.23;18.17;;;;;;;;;;10134380;28;20036;-70
2023/04/13 02:23:56;;;;;;;20.23;17.80;;;;;;;;;;10110513;28;20045;-70
2023/04/13 02:28:50;;;;;;;20.55;18.05;;;;;;;;;;10118525;28;20079;-70
2023/04/13 02:33:43;;;;;;;20.25;17.48;;;;;;;;;;10095424;28;20123;-70
2023/04/13 02:38:38;;;;;;;20.70;17.45;;;;;;;;;;10124592;28;20408;-69
2023/04/13 02:43:51;;;;;;;22.00;17.77;;;;;;;;;;10088292;28;20053;-70
2023/04/13 02:48:47;;;;;;;20.20;17.50;;;;;;;;;;10122468;28;20539;-69
2023/04/13 02:53:40;;;;;;;20.60;18.25;;;;;;;;;;10135571;28;20114;-69
2023/04/13 02:58:33;;;;;;;24.02;18.90;;;;;;;;;;10105000;28;20060;-69
2023/04/13 03:03:32;;;;;;;23.17;18.27;;;;;;;;;;10095369;28;20045;-69
2023/04/13 03:08:26;;;;;;;20.73;17.73;;;;;;;;;;10090606;28;20040;-70
2023/04/13 03:13:37;;;;;;;20.50;18.25;;;;;;;;;;10119046;28;20114;-69
2023/04/13 03:18:30;;;;;;;20.75;18.10;;;;;;;;;;10135055;28;20045;-70
2023/04/13 03:23:27;;;;;;;20.77;17.92;;;;;;;;;;10130563;28;20097;-69
2023/04/13 03:28:26;;;;;;;24.40;19.35;;;;;;;;;;10133446;28;20053;-69
2023/04/13 03:33:19;;;;;;;27.60;19.48;;;;;;;;;;10132719;28;20049;-69
2023/04/13 03:38:13;;;;;;;21.58;18.42;;;;;;;;;;10101947;28;20044;-70
2023/04/13 03:43:09;;;;;;;19.33;17.15;;;;;;;;;;10111368;28;20052;-69
2023/04/13 03:48:06;;;;;;;20.70;18.48;;;;;;;;;;10095937;28;20137;-70
2023/04/13 03:53:00;;;;;;;21.73;17.67;;;;;;;;;;10108505;28;20135;-69
2023/04/13 03:57:54;;;;;;;22.80;18.05;;;;;;;;;;10095430;28;20134;-69
2023/04/13 04:02:51;;;;;;;20.92;16.50;;;;;;;;;;10120857;28;20491;-73
2023/04/13 04:07:53;;;;;;;18.83;16.10;;;;;;;;;;10106790;28;20059;-72
2023/04/13 04:12:47;;;;;;;19.83;16.58;;;;;;;;;;10122192;28;20040;-72
2023/04/13 04:17:40;;;;;;;19.30;17.23;;;;;;;;;;10118608;28;20049;-73
2023/04/13 04:22:35;;;;;;;19.10;17.00;;;;;;;;;;10112093;28;20041;-72
2023/04/13 04:27:36;;;;;;;19.38;17.35;;;;;;;;;;10122237;28;20105;-72
2023/04/13 04:32:35;;;;;;;21.02;18.67;;;;;;;;;;10124446;28;20045;-72
2023/04/13 04:37:36;;;;;;;19.92;17.38;;;;;;;;;;10129403;28;20143;-76
2023/04/13 04:42:37;;;;;;;28.70;17.17;;;;;;;;;;10112528;28;20048;-74
2023/04/13 04:47:40;;;;;;;18.90;15.65;;;;;;;;;;10120039;28;20112;-74
2023/04/13 04:52:49;;;;;;;18.55;15.65;;;;;;;;;;10116777;28;21548;-74
2023/04/13 04:57:48;;;;;;;21.08;17.08;;;;;;;;;;10113738;28;20054;-73
2023/04/13 05:02:43;;;;;;;20.45;16.13;;;;;;;;;;10112784;28;20052;-73
2023/04/13 05:07:37;;;;;;;15.18;13.60;;;;;;;;;;10110437;28;20051;-75
2023/04/13 05:12:31;;;;;;;15.68;13.82;;;;;;;;;;10111972;28;20666;-71
2023/04/13 05:17:29;;;;;;;15.95;14.18;;;;;;;;;;10136118;28;20041;-71
2023/04/13 05:22:22;;;;;;;16.65;14.13;;;;;;;;;;10129177;28;20453;-71
2023/04/13 05:27:21;;;;;;;20.48;15.73;;;;;;;;;;10109900;28;20048;-72
2023/04/13 05:32:19;;;;;;;16.23;14.63;;;;;;;;;;10116002;28;20052;-70
2023/04/13 05:37:15;;;;;;;21.05;18.45;;;;;;;;;;10115284;28;20135;-69
2023/04/13 05:42:09;;;;;;;19.90;16.17;;;;;;;;;;10114834;28;20045;-70
2023/04/13 05:47:09;;;;;;;21.23;16.60;;;;;;;;;;10135088;28;20068;-70
2023/04/13 05:52:06;;;;;;;22.00;16.13;;;;;;;;;;10113198;28;20127;-75
2023/04/13 05:57:15;;;;;;;17.55;15.65;;;;;;;;;;10107148;28;20496;-73
2023/04/13 06:02:11;;;;;;;20.55;17.73;;;;;;;;;;10103648;28;20435;-72
2023/04/13 06:07:15;;;;;;;25.33;16.50;;;;;;;;;;10129585;28;20044;-69
2023/04/13 06:12:08;;;;;;;25.40;16.48;;;;;;;;;;10097643;28;20041;-69
2023/04/13 06:17:01;;;;;;;22.30;17.70;;;;;;;;;;10111887;28;20037;-69
2023/04/13 06:21:55;;;;;;;23.42;16.73;;;;;;;;;;10128741;28;20480;-69
2023/04/13 06:26:47;;;;;;;21.65;15.27;;;;;;;;;;10130348;28;20044;-69
2023/04/13 06:31:41;;;;;;;16.48;14.07;;;;;;;;;;10128584;28;20510;-67
2023/04/13 06:36:39;;;;;;;17.75;15.25;;;;;;;;;;10100223;28;20053;-70
2023/04/13 06:41:35;;;;;;;18.15;14.05;;;;;;;;;;10136467;28;20549;-69
2023/04/13 06:46:39;;;;;;;16.17;13.57;;;;;;;;;;10109006;28;20582;-71
2023/04/13 06:51:36;;;;;;;19.40;15.73;;;;;;;;;;10082342;28;20057;-69
2023/04/13 06:56:30;;;;;;;24.15;14.55;;;;;;;;;;10062123;28;20049;-69
2023/04/13 07:01:26;;;;;;;19.55;14.80;;;;;;;;;;10076122;28;20529;-69
2023/04/13 07:06:21;;;;;;;17.88;15.02;;;;;;;;;;10071811;28;20068;-69
2023/04/13 07:11:16;;;;;;;24.45;15.45;;;;;;;;;;10075744;28;20049;-69
2023/04/13 07:16:10;;;;;;;21.50;15.93;;;;;;;;;;10080154;28;20479;-69
2023/04/13 07:21:08;;;;;;;16.60;14.57;;;;;;;;;;10075889;28;20056;-69
2023/04/13 07:26:22;;;;;;;23.10;18.55;;;;;;;;;;10071289;28;20526;-70
2023/04/13 07:31:21;;;;;;;21.15;17.13;;;;;;;;;;10076893;28;20136;-70
2023/04/13 07:36:16;;;;;;;23.48;19.50;;;;;;;;;;10080291;28;20567;-70
2023/04/13 07:41:14;;;;;;;23.00;19.23;;;;;;;;;;10078720;28;20511;-70
2023/04/13 07:46:08;;;;;;;22.80;19.80;;;;;;;;;;10080084;28;20495;-70
2023/04/13 07:51:04;;;;;;;25.15;19.33;;;;;;;;;;10112851;28;20045;-70
2023/04/13 07:55:59;;;;;;;25.33;18.45;;;;;;;;;;10113123;28;20048;-70
2023/04/13 08:00:55;;;;;;;23.05;20.05;;;;;;;;;;10114190;28;20056;-70
2023/04/13 08:06:05;;;;;;;22.65;19.45;;;;;;;;;;10135851;28;20059;-70
2023/04/13 08:11:00;;;;;;;28.33;23.07;;;;;;;;;;10134832;28;20064;-69
2023/04/13 08:15:56;;;;;;;28.65;21.98;;;;;;;;;;10111380;28;20307;-70
2023/04/13 08:20:49;;;;;;;32.10;23.40;;;;;;;;;;10131533;28;20039;-72
2023/04/13 08:25:44;;;;;;;28.35;22.63;;;;;;;;;;10114073;28;20140;-68
2023/04/13 08:30:39;;;;;;;33.92;25.45;;;;;;;;;;10122936;28;20056;-68
2023/04/13 08:35:33;;;;;;;37.72;28.33;;;;;;;;;;10113451;28;21634;-68
2023/04/13 08:40:26;;;;;;;31.55;25.60;;;;;;;;;;10134423;28;20050;-68
2023/04/13 08:45:20;;;;;;;27.55;22.73;;;;;;;;;;10095590;28;20083;-68
2023/04/13 08:50:15;;;;;;;26.33;22.58;;;;;;;;;;10110249;28;20048;-68
2023/04/13 08:55:14;;;;;;;23.83;19.45;;;;;;;;;;10112711;28;20056;-68
2023/04/13 09:00:15;;;;;;;24.00;19.77;;;;;;;;;;10115329;28;20051;-69
2023/04/13 09:05:14;;;;;;;;;;;;;;;;;;10112069;28;20053;-68
2023/04/13 09:10:15;;;;;;;25.75;20.17;;;;;;;;;;10114616;28;20419;-69
2023/04/13 09:15:15;;;;;;;24.25;18.38;;;;;;;;;;10111768;28;20045;-68
2023/04/13 09:20:29;;;;;;;25.77;19.35;;;;;;;;;;10101001;28;20258;-69
2023/04/13 09:25:26;;;;;;;30.80;21.02;;;;;;;;;;10131238;28;20067;-69
2023/04/13 09:30:20;;;;;;;26.65;20.45;;;;;;;;;;10131252;28;20059;-69
2023/04/13 09:35:14;;;;;;;23.98;19.52;;;;;;;;;;10130605;28;20037;-69
2023/04/13 09:40:14;;;;;;;25.73;20.75;;;;;;;;;;10121267;28;20143;-68
2023/04/13 09:45:09;;;;;;;28.58;21.95;;;;;;;;;;10123622;28;20072;-68
2023/04/13 09:50:03;;;;;;;23.65;18.65;;;;;;;;;;10113693;28;20076;-68
2023/04/13 09:54:57;;;;;;;33.45;22.65;;;;;;;;;;10126644;28;20484;-69
2023/04/13 09:59:51;;;;;;;27.10;23.05;;;;;;;;;;10128476;28;20048;-69
2023/04/13 10:04:43;;;;;;;26.10;23.10;;;;;;;;;;10109144;28;20051;-69
2023/04/13 10:09:36;;;;;;;27.48;23.23;;;;;;;;;;10129519;28;20040;-69
2023/04/13 10:14:33;;;;;;;26.90;24.10;;;;;;;;;;10109987;28;20110;-69
2023/04/13 10:19:29;;;;;;;27.60;23.95;;;;;;;;;;10114203;28;20033;-69
2023/04/13 10:24:23;;;;;;;24.83;22.42;;;;;;;;;;10119650;28;20407;-69
2023/04/13 10:29:26;;;;;;;21.13;19.15;;;;;;;;;;10120040;28;20152;-68
2023/04/13 10:34:33;;;;;;;26.52;22.45;;;;;;;;;;10136288;28;20119;-70
2023/04/13 10:39:29;;;;;;;20.02;18.05;;;;;;;;;;10140856;28;20102;-70
2023/04/13 10:44:22;;;;;;;20.25;17.05;;;;;;;;;;10135404;28;20609;-70
2023/04/13 10:49:16;;;;;;;18.80;16.15;;;;;;;;;;10138377;28;20130;-70
2023/04/13 10:54:09;;;;;;;15.70;14.20;;;;;;;;;;10139537;28;20502;-70
2023/04/13 10:59:03;;;;;;;17.08;15.48;;;;;;;;;;10137014;28;20064;-70
2023/04/13 11:04:04;;;;;;;19.17;17.27;;;;;;;;;;10137559;28;20056;-71
2023/04/13 11:09:05;;;;;;;18.73;16.83;;;;;;;;;;10125316;28;20047;-71
2023/04/13 11:13:59;;;;;;;;;;;;;;;;;;10134302;28;20049;-71
2023/04/13 11:19:15;;;;;;;17.85;16.13;;;;;;;;;;10133325;28;19920;-72
2023/04/13 11:24:09;;;;;;;24.38;17.80;;;;;;;;;;10129952;28;20078;-69
2023/04/13 11:29:03;;;;;;;21.10;16.23;;;;;;;;;;10119615;28;20465;-70
2023/04/13 11:33:58;;;;;;;19.63;17.58;;;;;;;;;;10136617;28;20048;-70
2023/04/13 11:38:53;;;;;;;18.60;16.67;;;;;;;;;;10133311;28;20045;-69
2023/04/13 11:43:47;;;;;;;19.77;15.80;;;;;;;;;;10128566;28;20087;-70
2023/04/13 11:48:42;;;;;;;17.20;15.43;;;;;;;;;;10133901;28;20060;-70
2023/04/13 11:53:37;;;;;;;16.60;14.90;;;;;;;;;;10136211;28;20446;-70
2023/04/13 11:58:31;;;;;;;17.05;15.45;;;;;;;;;;10131903;28;20124;-69
2023/04/13 12:03:25;;;;;;;17.40;15.55;;;;;;;;;;10132560;28;20079;-69
2023/04/13 12:08:34;;;;;;;21.08;17.48;;;;;;;;;;10127055;28;20777;-70
2023/04/13 12:13:43;;;;;;;20.88;17.73;;;;;;;;;;10124288;28;20049;-70
2023/04/13 12:18:51;;;;;;;19.38;17.15;;;;;;;;;;10135368;28;20507;-69
2023/04/13 12:24:12;;;;;;;18.45;16.55;;;;;;;;;;10133257;28;20049;-69
2023/04/13 12:29:08;;;;;;;18.15;16.35;;;;;;;;;;10131173;28;20048;-69
2023/04/13 12:34:03;;;;;;;18.67;16.75;;;;;;;;;;10136522;28;20049;-69
2023/04/13 12:38:59;;;;;;;19.05;17.15;;;;;;;;;;10133031;28;20115;-70
2023/04/13 12:43:53;;;;;;;17.00;15.20;;;;;;;;;;10126030;28;20049;-69
2023/04/13 12:48:46;;;;;;;17.23;15.52;;;;;;;;;;10135485;28;20563;-70
2023/04/13 12:53:39;;;;;;;17.40;14.93;;;;;;;;;;10124949;28;20048;-69
2023/04/13 12:58:34;;;;;;;16.15;14.48;;;;;;;;;;10128285;28;20048;-70
2023/04/13 13:03:27;;;;;;;15.63;13.98;;;;;;;;;;10130673;28;20450;-70
2023/04/13 13:08:20;;;;;;;17.17;13.85;;;;;;;;;;10128573;28;20045;-70
2023/04/13 13:13:15;;;;;;;19.45;12.80;;;;;;;;;;10124490;28;20052;-70
2023/04/13 13:18:10;;;;;;;15.80;12.90;;;;;;;;;;10120561;28;20048;-70
2023/04/13 13:23:03;;;;;;;14.75;13.30;;;;;;;;;;10127981;28;20037;-70
2023/04/13 13:28:01;;;;;;;13.73;11.73;;;;;;;;;;10133858;28;20045;-71
2023/04/13 13:33:14;;;;;;;13.98;12.57;;;;;;;;;;10048537;28;20133;-70
2023/04/13 13:38:08;;;;;;;13.30;12.02;;;;;;;;;;10043529;28;20500;-70
2023/04/13 13:43:03;;;;;;;15.43;13.68;;;;;;;;;;10051928;28;20050;-71
2023/04/13 13:47:58;;;;;;;15.95;13.68;;;;;;;;;;10041367;28;20115;-70
2023/04/13 13:53:12;;;;;;;16.90;14.07;;;;;;;;;;10091489;28;20051;-70
2023/04/13 13:58:07;;;;;;;18.40;15.13;;;;;;;;;;10101583;28;20503;-71
2023/04/13 14:03:00;;;;;;;15.90;14.35;;;;;;;;;;10090549;28;20532;-72
2023/04/13 14:07:53;;;;;;;18.55;15.18;;;;;;;;;;10088332;28;20081;-72
2023/04/13 14:12:47;;;;;;;18.30;15.65;;;;;;;;;;10087945;28;20132;-71
2023/04/13 14:17:43;;;;;;;14.98;13.48;;;;;;;;;;10093140;28;20049;-72
2023/04/13 14:22:54;;;;;;;16.60;13.77;;;;;;;;;;10087472;28;20414;-72
2023/04/13 14:27:47;;;;;;;15.15;13.75;;;;;;;;;;10085525;28;20060;-72
2023/04/13 14:32:40;;;;;;;18.35;15.40;;;;;;;;;;10084726;28;20051;-73
2023/04/13 14:37:33;;;;;;;19.75;16.02;;;;;;;;;;10082671;28;20045;-76
2023/04/13 14:42:29;;;;;;;18.48;14.68;;;;;;;;;;10087092;28;20065;-71
2023/04/13 14:47:23;;;;;;;19.17;15.88;;;;;;;;;;10106929;28;21420;-71
2023/04/13 14:52:17;;;;;;;19.00;16.45;;;;;;;;;;10126669;28;20442;-71
2023/04/13 14:57:10;;;;;;;22.58;16.55;;;;;;;;;;10105394;28;20098;-71
2023/04/13 15:02:03;;;;;;;3.28;1.10;;;;;;;;;;10126047;28;20453;-71
2023/04/13 15:06:57;;;;;;;3.92;1.10;;;;;;;;;;10147238;28;20410;-70
2023/04/13 15:11:51;;;;;;;2.20;1.13;;;;;;;;;;10143116;28;20061;-70
2023/04/13 15:16:45;;;;;;;0.80;0.80;;;;;;;;;;10136589;28;20086;-70
2023/04/13 15:21:40;;;;;;;1.00;0.90;;;;;;;;;;10134321;28;20052;-70
2023/04/13 15:26:37;;;;;;;2.65;0.90;;;;;;;;;;10132021;28;20454;-78
2023/04/13 15:31:31;;;;;;;0.95;0.80;;;;;;;;;;10131537;28;20163;-71
2023/04/13 15:36:26;;;;;;;1.73;0.70;;;;;;;;;;10136156;28;20055;-78
2023/04/13 15:41:22;;;;;;;4.47;0.93;;;;;;;;;;10134506;28;20094;-71
2023/04/13 15:46:18;;;;;;;2.75;0.80;;;;;;;;;;10126434;28;20056;-71
2023/04/13 15:51:12;;;;;;;0.90;0.90;;;;;;;;;;10089945;28;20054;-71
2023/04/13 15:56:08;;;;;;;1.73;0.80;;;;;;;;;;10090329;28;20132;-74
2023/04/13 16:01:03;;;;;;;1.40;0.80;;;;;;;;;;10090382;28;20056;-74
2023/04/13 16:05:57;;;;;;;4.22;0.80;;;;;;;;;;10090872;28;20107;-76
2023/04/13 16:10:52;;;;;;;1.08;0.70;;;;;;;;;;10089560;28;20710;-74
2023/04/13 16:15:51;;;;;;;2.65;0.75;;;;;;;;;;10092759;28;20095;-73
2023/04/13 16:20:46;;;;;;;2.08;0.60;;;;;;;;;;10088225;28;20463;-74
2023/04/13 16:25:40;;;;;;;1.65;0.73;;;;;;;;;;10087006;28;20120;-75
2023/04/13 16:30:34;;;;;;;6.05;0.80;;;;;;;;;;10090883;28;20056;-74
2023/04/13 16:35:27;;;;;;;4.95;0.60;;;;;;;;;;10092282;28;20068;-75
2023/04/13 16:40:21;;;;;;;1.02;0.63;;;;;;;;;;10095184;28;20056;-75
2023/04/13 16:45:15;;;;;;;1.67;0.60;;;;;;;;;;10091527;28;20132;-74
2023/04/13 16:50:10;;;;;;;0.50;0.50;;;;;;;;;;10091713;28;20403;-75
2023/04/13 16:55:05;;;;;;;0.88;0.70;;;;;;;;;;10092710;28;20073;-75
2023/04/13 17:00:09;;;;;;;0.70;0.70;;;;;;;;;;10087554;28;20478;-75
2023/04/13 17:05:07;;;;;;;1.00;0.80;;;;;;;;;;10087505;28;20487;-75
2023/04/13 17:10:00;;;;;;;2.30;0.90;;;;;;;;;;10089237;28;20041;-75
2023/04/13 17:14:54;;;;;;;1.05;0.68;;;;;;;;;;10090054;28;20033;-75
2023/04/13 17:19:53;;;;;;;0.90;0.90;;;;;;;;;;10090514;28;20041;-76
2023/04/13 17:24:46;;;;;;;0.75;0.75;;;;;;;;;;10092400;28;20048;-70
2023/04/13 17:29:39;;;;;;;0.70;0.70;;;;;;;;;;10090083;28;20071;-71
2023/04/13 17:34:33;;;;;;;0.75;0.75;;;;;;;;;;10095356;28;20462;-71
2023/04/13 17:39:27;;;;;;;0.70;0.70;;;;;;;;;;10095231;28;20071;-71
2023/04/13 17:44:20;;;;;;;0.70;0.70;;;;;;;;;;10095395;28;20110;-71
2023/04/13 17:49:14;;;;;;;3.53;1.05;;;;;;;;;;10120851;28;20052;-71
2023/04/13 17:54:10;;;;;;;0.90;0.90;;;;;;;;;;10120738;28;20139;-75
2023/04/13 17:59:03;;;;;;;0.85;0.82;;;;;;;;;;10126948;28;20049;-70
2023/04/13 18:03:59;;;;;;;0.90;0.90;;;;;;;;;;10132383;28;20041;-70
2023/04/13 18:08:51;;;;;;;1.65;0.90;;;;;;;;;;10109254;28;20071;-70
2023/04/13 18:13:46;;;;;;;1.00;0.90;;;;;;;;;;10133510;28;20043;-70
2023/04/13 18:18:42;;;;;;;1.30;1.20;;;;;;;;;;10128655;28;20052;-70
2023/04/13 18:23:36;;;;;;;2.85;1.20;;;;;;;;;;10128457;28;20053;-71
2023/04/13 18:28:30;;;;;;;1.27;0.80;;;;;;;;;;10128634;28;20422;-71
2023/04/13 18:33:23;;;;;;;0.82;0.82;;;;;;;;;;10126312;28;20486;-71
2023/04/13 18:38:16;;;;;;;1.23;0.80;;;;;;;;;;10133916;28;20414;-72
2023/04/13 18:43:10;;;;;;;6.93;0.93;;;;;;;;;;10135855;28;20049;-72
2023/04/13 18:48:05;;;;;;;0.90;0.80;;;;;;;;;;10093173;28;20057;-69
2023/04/13 18:52:58;;;;;;;1.38;1.10;;;;;;;;;;10100918;28;20507;-71
2023/04/13 18:57:52;;;;;;;1.27;1.17;;;;;;;;;;10101857;28;20049;-73
2023/04/13 19:02:47;;;;;;;3.38;1.08;;;;;;;;;;10080022;28;20045;-75
2023/04/13 19:07:55;;;;;;;1.20;1.10;;;;;;;;;;10100553;28;20135;-74
2023/04/13 19:12:48;;;;;;;2.95;1.67;;;;;;;;;;10104009;28;20053;-75
2023/04/13 19:17:42;;;;;;;1.35;1.10;;;;;;;;;;10101582;28;20048;-75
2023/04/13 19:22:37;;;;;;;1.98;1.45;;;;;;;;;;10093216;28;20045;-74
2023/04/13 19:27:31;;;;;;;2.35;1.50;;;;;;;;;;10088014;28;20107;-73
2023/04/13 19:32:24;;;;;;;1.77;1.30;;;;;;;;;;10093483;28;20049;-74
2023/04/13 19:37:18;;;;;;;1.30;1.20;;;;;;;;;;10086340;28;20048;-75
2023/04/13 19:42:13;;;;;;;1.40;1.30;;;;;;;;;;10092093;28;20110;-76
2023/04/13 19:47:07;;;;;;;1.27;1.15;;;;;;;;;;10117316;28;20056;-76
2023/04/13 19:52:00;;;;;;;1.70;1.60;;;;;;;;;;10152882;28;20549;-72
2023/04/13 19:56:54;;;;;;;1.50;1.40;;;;;;;;;;10161880;28;20411;-73
2023/04/13 20:01:47;;;;;;;1.40;1.30;;;;;;;;;;10155676;28;20450;-74
2023/04/13 20:06:40;;;;;;;1.50;1.40;;;;;;;;;;10164225;28;20335;-75
2023/04/13 20:11:36;;;;;;;1.60;1.50;;;;;;;;;;10157769;28;20516;-79
2023/04/13 20:16:28;;;;;;;1.85;1.50;;;;;;;;;;10152905;28;20060;-79
2023/04/13 20:21:21;;;;;;;2.00;1.90;;;;;;;;;;10159870;28;20580;-77
2023/04/13 20:26:15;;;;;;;2.08;1.88;;;;;;;;;;10159163;28;20051;-77
2023/04/13 20:31:08;;;;;;;1.70;1.60;;;;;;;;;;10153491;28;20101;-75
2023/04/13 20:36:02;;;;;;;1.58;1.48;;;;;;;;;;10152422;28;20178;-76
2023/04/13 20:40:56;;;;;;;3.85;1.70;;;;;;;;;;10147617;28;20072;-79
2023/04/13 20:45:49;;;;;;;2.47;1.80;;;;;;;;;;10143684;28;20459;-75
2023/04/13 20:50:46;;;;;;;1.85;1.63;;;;;;;;;;10155686;28;20044;-77
2023/04/13 20:55:41;;;;;;;1.77;1.67;;;;;;;;;;10150883;28;20492;-78
2023/04/13 21:00:34;;;;;;;1.52;1.42;;;;;;;;;;10159696;28;20040;-77
2023/04/13 21:05:27;;;;;;;3.55;1.52;;;;;;;;;;10151507;28;20454;-78
2023/04/13 21:10:21;;;;;;;1.85;1.60;;;;;;;;;;10151909;28;20098;-77
2023/04/13 21:15:14;;;;;;;2.55;2.00;;;;;;;;;;10122752;28;20051;-75
2023/04/13 21:20:09;;;;;;;1.80;1.70;;;;;;;;;;10143507;28;20554;-75
2023/04/13 21:25:04;;;;;;;1.90;1.70;;;;;;;;;;10121559;28;20056;-74
2023/04/13 21:29:58;;;;;;;1.83;1.73;;;;;;;;;;10144974;28;20055;-75
2023/04/13 21:34:53;;;;;;;2.03;1.92;;;;;;;;;;10117308;28;20049;-75
2023/04/13 21:39:46;;;;;;;1.67;1.58;;;;;;;;;;10144950;28;20471;-75
2023/04/13 21:44:40;;;;;;;1.88;1.77;;;;;;;;;;10122563;28;20413;-75
2023/04/13 21:49:33;;;;;;;1.92;1.70;;;;;;;;;;10143504;28;20136;-75
2023/04/13 21:54:27;;;;;;;1.40;1.30;;;;;;;;;;10123417;28;20049;-74
2023/04/13 21:59:22;;;;;;;1.92;1.73;;;;;;;;;;10129372;28;20080;-74
2023/04/13 22:04:15;;;;;;;1.65;1.55;;;;;;;;;;10124482;28;20137;-73
2023/04/13 22:09:10;;;;;;;2.55;2.35;;;;;;;;;;10118403;28;20060;-74
2023/04/13 22:14:03;;;;;;;1.70;1.60;;;;;;;;;;10139135;28;20423;-74
2023/04/13 22:18:57;;;;;;;4.75;2.28;;;;;;;;;;10125912;28;20484;-74
2023/04/13 22:23:51;;;;;;;1.90;1.80;;;;;;;;;;10125605;28;20118;-75
2023/04/13 22:28:44;;;;;;;2.75;1.77;;;;;;;;;;10129756;28;20045;-73
2023/04/13 22:33:39;;;;;;;3.40;1.90;;;;;;;;;;10120589;28;20057;-74
2023/04/13 22:38:33;;;;;;;2.15;2.00;;;;;;;;;;10117125;28;20059;-74
2023/04/13 22:43:27;;;;;;;5.72;2.08;;;;;;;;;;10112319;28;20037;-76
2023/04/13 22:48:21;;;;;;;1.83;1.73;;;;;;;;;;10083534;28;20049;-75
2023/04/13 22:53:15;;;;;;;2.05;1.90;;;;;;;;;;10069111;28;20045;-75
2023/04/13 22:58:07;;;;;;;1.60;1.50;;;;;;;;;;10068543;28;20064;-74
2023/04/13 23:03:01;;;;;;;1.88;1.70;;;;;;;;;;10065264;28;20049;-75
2023/04/13 23:07:55;;;;;;;2.00;1.90;;;;;;;;;;10080142;28;20043;-75
2023/04/13 23:12:48;;;;;;;1.88;1.77;;;;;;;;;;10081310;28;20060;-75
2023/04/13 23:17:41;;;;;;;3.50;1.63;;;;;;;;;;10084633;28;20087;-75
2023/04/13 23:22:34;;;;;;;2.10;1.90;;;;;;;;;;10072729;28;20056;-75
2023/04/13 23:27:29;;;;;;;2.05;1.95;;;;;;;;;;10085965;28;20049;-75
2023/04/13 23:32:24;;;;;;;2.10;1.90;;;;;;;;;;10091416;28;20104;-74
2023/04/13 23:37:17;;;;;;;2.42;2.03;;;;;;;;;;10087079;28;20708;-74
2023/04/13 23:42:10;;;;;;;3.55;2.08;;;;;;;;;;10101140;28;20416;-75
2023/04/13 23:47:04;;;;;;;2.53;2.33;;;;;;;;;;10081156;28;20535;-75
2023/04/13 23:51:57;;;;;;;1.75;1.65;;;;;;;;;;10091003;28;20045;-74
2023/04/13 23:56:51;;;;;;;2.47;1.70;;;;;;;;;;10080148;28;20042;-74
